B16 weather

Whitfords Airport
Weedsport, New York, United States

Public forecast

Using degrees Fahrenheit for public forecast. Weather courtesy of forecast.io.

METAR (pilot weather report)

Closest report is Oswego County Airport, 17.5 nm (32.5 km) NNE. Retrieved 2019/05/25 22:54 UTC (12 minutes ago):

KFZY 252254Z AUTO 15005KT 10SM FEW120 23/14 A2985 RMK AO2 SLP107 T02330144 $

TAF (pilot weather forecast)

Closest forecast is Syracuse Hancock International Airport, 19.0 nm (35.3 km) E. Retrieved 2019/05/25 18:46 UTC (4 hours ago):

TAF KSYR 251744Z 2518/2618 17010KT P6SM BKN050 OVC100 TEMPO 2521/2523 3SM -TSRA BKN030CB FM260000 23010KT P6SM -SHRA OVC040 TEMPO 2601/2603 5SM -TSRA BKN025CB FM260500 24009KT P6SM BKN015 FM261400 28010KT P6SM SCT030 BKN150